createdAt,value
2019-01-29T00:01:21.963Z,3.60
2019-01-29T00:03:55.404Z,3.58
2019-01-29T00:06:31.517Z,3.58
2019-01-29T00:09:07.318Z,3.57
2019-01-29T00:11:43.518Z,3.51
2019-01-29T00:14:16.924Z,3.51
2019-01-29T00:16:50.437Z,3.48
2019-01-29T00:19:23.918Z,3.45
2019-01-29T00:21:57.406Z,3.40
2019-01-29T00:24:30.771Z,3.51
2019-01-29T00:27:04.369Z,3.49
2019-01-29T00:29:39.390Z,3.53
2019-01-29T00:32:13.439Z,3.48
2019-01-29T00:34:51.488Z,3.47
2019-01-29T00:37:25.018Z,3.46
2019-01-29T00:40:05.862Z,3.48
2019-01-29T00:42:40.497Z,3.52
2019-01-29T00:45:20.120Z,3.48
2019-01-29T00:47:53.725Z,3.41
2019-01-29T00:50:27.125Z,3.39
2019-01-29T00:53:00.718Z,3.41
2019-01-29T00:55:36.957Z,3.42
2019-01-29T00:58:10.303Z,3.44
2019-01-29T01:00:47.436Z,3.44
2019-01-29T01:03:20.425Z,3.41
2019-01-29T01:05:53.812Z,3.44
2019-01-29T01:08:28.897Z,3.46
2019-01-29T01:11:03.931Z,3.44
2019-01-29T01:13:37.335Z,3.38
2019-01-29T01:16:10.715Z,3.43
2019-01-29T01:18:44.078Z,3.46
2019-01-29T01:21:17.397Z,3.54
2019-01-29T01:23:50.773Z,3.53
2019-01-29T01:26:24.084Z,3.54
2019-01-29T01:28:57.431Z,3.51
2019-01-29T01:31:30.827Z,3.51
2019-01-29T01:34:04.312Z,3.50
2019-01-29T01:36:37.640Z,3.55
2019-01-29T01:39:12.590Z,3.63
2019-01-29T01:41:47.451Z,3.67
2019-01-29T01:44:20.802Z,3.63
2019-01-29T01:46:54.142Z,3.66
2019-01-29T01:49:27.492Z,3.67
2019-01-29T01:52:00.845Z,3.74
2019-01-29T01:54:36.627Z,3.78
2019-01-29T01:57:14.478Z,3.74
2019-01-29T01:59:47.819Z,3.77
2019-01-29T02:02:21.144Z,3.72
2019-01-29T02:05:03.332Z,3.78
2019-01-29T02:07:36.698Z,3.80
2019-01-29T02:10:31.958Z,3.81
2019-01-29T02:12:56.163Z,3.79
2019-01-29T02:15:34.346Z,3.87
2019-01-29T02:18:09.465Z,3.86
2019-01-29T02:20:42.891Z,3.86
2019-01-29T02:23:19.677Z,3.82
2019-01-29T02:25:52.988Z,3.80
2019-01-29T02:28:26.329Z,3.82
2019-01-29T02:31:06.996Z,3.79
2019-01-29T02:33:43.124Z,3.78
2019-01-29T02:36:23.005Z,3.75
2019-01-29T02:39:02.367Z,3.78
2019-01-29T02:41:35.871Z,3.80
2019-01-29T02:44:18.379Z,3.85
2019-01-29T02:46:55.006Z,3.85
2019-01-29T02:49:28.348Z,3.86
2019-01-29T02:52:01.698Z,3.78
2019-01-29T02:54:35.171Z,3.87
2019-01-29T02:57:10.133Z,3.91
2019-01-29T02:59:43.531Z,3.87
2019-01-29T03:02:16.858Z,3.92
2019-01-29T03:04:53.641Z,3.97
2019-01-29T03:07:27.277Z,4.00
2019-01-29T03:10:02.391Z,3.94
2019-01-29T03:12:41.524Z,3.96
2019-01-29T03:15:26.750Z,4.01
2019-01-29T03:18:00.407Z,4.02
2019-01-29T03:20:37.043Z,4.02
2019-01-29T03:23:10.397Z,4.03
2019-01-29T03:25:46.710Z,4.05
2019-01-29T03:28:20.028Z,4.01
2019-01-29T03:30:56.544Z,3.98
2019-01-29T03:33:31.426Z,3.99
2019-01-29T03:36:06.581Z,3.96
2019-01-29T03:38:39.977Z,3.93
2019-01-29T03:41:13.322Z,3.99
2019-01-29T03:43:46.691Z,4.09
2019-01-29T03:46:20.092Z,4.08
2019-01-29T03:48:54.996Z,4.10
2019-01-29T03:51:28.392Z,4.14
2019-01-29T03:54:03.444Z,4.11
2019-01-29T03:56:38.002Z,4.07
2019-01-29T03:59:20.079Z,4.10
2019-01-29T04:01:53.540Z,4.06
2019-01-29T04:04:26.884Z,4.08
2019-01-29T04:07:05.965Z,4.11
2019-01-29T04:09:43.216Z,4.14
2019-01-29T04:12:19.347Z,4.22
2019-01-29T04:14:55.795Z,4.31
2019-01-29T04:17:31.270Z,4.30
2019-01-29T04:20:06.659Z,4.19
2019-01-29T04:22:43.221Z,4.21
2019-01-29T04:25:19.614Z,4.20
2019-01-29T04:27:58.919Z,4.22
2019-01-29T04:30:33.805Z,4.12
2019-01-29T04:33:37.691Z,4.27
2019-01-29T04:36:13.531Z,4.22
2019-01-29T04:38:54.505Z,4.30
2019-01-29T04:41:41.576Z,4.26
2019-01-29T04:44:14.907Z,4.26
2019-01-29T04:46:52.527Z,4.23
2019-01-29T04:49:25.014Z,4.21
2019-01-29T04:51:59.656Z,4.21
2019-01-29T04:54:33.703Z,4.27
2019-01-29T04:57:11.400Z,4.24
2019-01-29T04:59:44.765Z,4.27
2019-01-29T05:02:18.142Z,4.20
2019-01-29T05:04:56.203Z,4.18
2019-01-29T05:07:31.664Z,4.11
2019-01-29T05:10:17.091Z,4.21
2019-01-29T05:12:50.551Z,4.31
2019-01-29T05:15:23.966Z,4.28
2019-01-29T05:17:57.366Z,4.29
2019-01-29T05:20:30.809Z,4.28
2019-01-29T05:23:04.221Z,4.30
2019-01-29T05:25:37.569Z,4.29
2019-01-29T05:28:10.888Z,4.30
2019-01-29T05:30:47.409Z,4.28
2019-01-29T05:33:20.855Z,4.31
2019-01-29T05:36:03.208Z,4.25
2019-01-29T05:38:36.548Z,4.29
2019-01-29T05:41:12.259Z,4.38
2019-01-29T05:43:47.928Z,4.36
2019-01-29T05:46:21.361Z,4.35
2019-01-29T05:48:58.571Z,4.35
2019-01-29T05:51:31.843Z,4.34
2019-01-29T05:54:15.870Z,4.38
2019-01-29T05:56:41.984Z,4.37
2019-01-29T05:59:15.583Z,4.40
2019-01-29T06:01:49.080Z,4.31
2019-01-29T06:04:25.081Z,4.35
2019-01-29T06:07:00.190Z,4.35
2019-01-29T06:09:33.664Z,4.30
2019-01-29T06:12:12.872Z,4.23
2019-01-29T06:14:50.711Z,4.24
2019-01-29T06:17:27.469Z,4.19
2019-01-29T06:20:03.831Z,4.21
2019-01-29T06:22:37.257Z,4.27
2019-01-29T06:25:13.240Z,4.29
2019-01-29T06:27:46.662Z,4.30
2019-01-29T06:30:25.898Z,4.38
2019-01-29T06:33:01.156Z,4.38
2019-01-29T06:35:34.493Z,4.43
2019-01-29T06:41:13.039Z,4.44
2019-01-29T06:43:46.369Z,4.33
2019-01-29T06:46:19.804Z,4.37
2019-01-29T06:48:56.874Z,4.34
2019-01-29T06:51:29.899Z,4.33
2019-01-29T06:54:06.140Z,4.40
2019-01-29T06:56:42.586Z,4.43
2019-01-29T06:59:20.464Z,4.38
2019-01-29T07:01:52.765Z,4.33
2019-01-29T07:04:26.208Z,4.32
2019-01-29T07:06:59.719Z,4.28
2019-01-29T07:09:43.490Z,4.40
2019-01-29T07:12:19.800Z,4.45
2019-01-29T07:14:54.654Z,4.29
2019-01-29T07:17:29.645Z,4.33
2019-01-29T07:20:05.825Z,4.36
2019-01-29T07:22:42.398Z,4.34
2019-01-29T07:25:17.537Z,4.34
2019-01-29T07:27:54.725Z,4.36
2019-01-29T07:30:28.153Z,4.39
2019-01-29T07:33:04.503Z,4.43
2019-01-29T07:35:37.874Z,4.47
2019-01-29T07:38:15.726Z,4.49
2019-01-29T07:40:52.282Z,4.47
2019-01-29T07:43:30.425Z,4.53
2019-01-29T07:46:07.067Z,4.56
2019-01-29T07:48:42.235Z,4.59
2019-01-29T07:51:17.156Z,4.67
2019-01-29T07:53:52.406Z,4.66
2019-01-29T07:56:25.788Z,4.51
2019-01-29T07:58:59.157Z,4.22
2019-01-29T08:01:32.473Z,4.30
2019-01-29T08:04:05.918Z,4.20
2019-01-29T08:06:39.313Z,4.25
2019-01-29T08:09:12.818Z,4.29
2019-01-29T08:11:46.283Z,4.40
2019-01-29T08:14:19.705Z,4.46
2019-01-29T08:16:53.026Z,4.55
2019-01-29T08:19:26.388Z,4.60
2019-01-29T08:21:59.742Z,4.65
2019-01-29T08:24:33.139Z,4.62
2019-01-29T08:27:06.542Z,4.66
2019-01-29T08:29:44.497Z,4.72
2019-01-29T08:32:17.851Z,4.76
2019-01-29T08:34:51.198Z,4.81
2019-01-29T08:37:26.418Z,4.84
2019-01-29T08:40:04.377Z,4.83
2019-01-29T08:42:37.801Z,4.96
2019-01-29T08:45:16.658Z,4.99
2019-01-29T08:47:50.004Z,4.98
2019-01-29T08:50:29.934Z,4.91
2019-01-29T08:53:08.245Z,5.01
2019-01-29T08:55:42.621Z,5.06
2019-01-29T08:58:16.111Z,5.10
2019-01-29T09:00:49.425Z,5.06
2019-01-29T09:03:24.319Z,5.11
2019-01-29T09:05:57.653Z,5.16
2019-01-29T09:08:32.718Z,5.26
2019-01-29T09:11:06.186Z,5.29
2019-01-29T09:13:40.552Z,5.28
2019-01-29T09:16:15.746Z,5.29
2019-01-29T09:21:41.613Z,5.35
2019-01-29T09:24:21.018Z,5.30
2019-01-29T09:26:59.212Z,5.32
2019-01-29T09:29:34.108Z,5.29
2019-01-29T09:32:13.728Z,5.30
2019-01-29T09:34:51.385Z,5.32
2019-01-29T09:37:24.713Z,5.30
2019-01-29T09:39:58.141Z,5.31
2019-01-29T09:42:31.467Z,5.33
2019-01-29T09:45:11.692Z,5.32
2019-01-29T09:47:49.239Z,5.24
2019-01-29T09:50:27.099Z,5.36
2019-01-29T09:53:03.370Z,5.37
2019-01-29T09:55:45.817Z,5.40
2019-01-29T09:58:19.232Z,5.41
2019-01-29T10:00:54.278Z,5.37
2019-01-29T10:03:29.350Z,5.37
2019-01-29T10:06:04.058Z,5.41
2019-01-29T10:08:37.374Z,5.42
2019-01-29T10:11:10.790Z,5.44
2019-01-29T10:13:46.234Z,5.42
2019-01-29T10:16:21.145Z,5.20
2019-01-29T10:18:57.241Z,5.39
2019-01-29T10:21:30.632Z,5.51
2019-01-29T10:24:06.925Z,5.55
2019-01-29T10:26:42.071Z,5.42
2019-01-29T10:29:21.157Z,5.37
2019-01-29T10:31:57.324Z,5.33
2019-01-29T10:34:30.739Z,5.35
2019-01-29T10:37:04.206Z,5.45
2019-01-29T10:39:44.747Z,5.56
2019-01-29T10:42:19.700Z,5.40
2019-01-29T10:44:57.017Z,5.47
2019-01-29T10:47:31.955Z,5.54
2019-01-29T10:50:08.480Z,5.60
2019-01-29T10:52:44.797Z,5.65
2019-01-29T10:55:19.598Z,5.61
2019-01-29T10:57:53.353Z,5.69
2019-01-29T11:00:29.787Z,5.70
2019-01-29T11:03:03.181Z,5.66
2019-01-29T11:05:36.661Z,5.50
2019-01-29T11:08:10.223Z,5.61
2019-01-29T11:10:43.635Z,5.62
2019-01-29T11:13:17.029Z,5.74
2019-01-29T11:15:52.104Z,5.84
2019-01-29T11:18:27.280Z,5.84
2019-01-29T11:21:03.816Z,5.75
2019-01-29T11:23:37.139Z,5.79
2019-01-29T11:26:10.652Z,5.82
2019-01-29T11:28:44.073Z,5.89
2019-01-29T11:31:17.461Z,5.91
2019-01-29T11:33:50.845Z,6.01
2019-01-29T11:36:24.167Z,6.17
2019-01-29T11:38:59.854Z,6.18
2019-01-29T11:41:35.009Z,6.25
2019-01-29T11:44:08.530Z,6.35
2019-01-29T11:46:41.983Z,6.51
2019-01-29T11:49:16.857Z,6.62
2019-01-29T11:51:51.899Z,6.60
2019-01-29T11:54:25.249Z,6.61
2019-01-29T11:57:00.202Z,6.66
2019-01-29T11:59:36.939Z,6.72
2019-01-29T12:02:11.884Z,6.77
2019-01-29T12:04:45.228Z,6.81
2019-01-29T12:07:19.559Z,6.79
2019-01-29T12:09:56.387Z,6.73
2019-01-29T12:12:28.747Z,6.98
2019-01-29T12:15:02.247Z,7.04
2019-01-29T12:17:35.580Z,7.06
2019-01-29T12:20:12.106Z,7.14
2019-01-29T12:22:45.569Z,7.22
2019-01-29T12:25:27.532Z,7.14
2019-01-29T12:28:00.920Z,7.14
2019-01-29T12:30:36.361Z,7.09
2019-01-29T12:33:12.525Z,7.05
2019-01-29T12:35:53.767Z,7.02
2019-01-29T12:38:27.088Z,6.92
2019-01-29T12:41:03.689Z,6.95
2019-01-29T12:43:37.063Z,6.98
2019-01-29T12:46:10.501Z,6.96
2019-01-29T12:48:43.819Z,6.76
2019-01-29T12:51:18.866Z,6.76
2019-01-29T12:53:52.251Z,6.66
2019-01-29T12:56:27.655Z,6.76
2019-01-29T12:59:01.064Z,6.74
2019-01-29T13:01:34.407Z,6.78
2019-01-29T13:04:07.723Z,6.78
2019-01-29T13:06:41.070Z,6.52
2019-01-29T13:09:14.534Z,6.46
2019-01-29T13:11:47.883Z,6.63
2019-01-29T13:14:21.240Z,6.60
2019-01-29T13:16:54.566Z,6.63
2019-01-29T13:19:27.988Z,6.64
2019-01-29T13:22:01.319Z,6.64
2019-01-29T13:24:34.672Z,6.73
2019-01-29T13:27:08.069Z,6.72
2019-01-29T13:29:41.474Z,6.72
2019-01-29T13:32:14.973Z,6.82
2019-01-29T13:34:48.322Z,6.68
2019-01-29T13:37:21.739Z,6.78
2019-01-29T13:39:55.153Z,6.80
2019-01-29T13:42:28.549Z,6.80
2019-01-29T13:45:01.886Z,6.89
2019-01-29T13:47:35.278Z,6.91
2019-01-29T14:00:35.131Z,7.10
2019-01-29T14:03:14.057Z,7.04
2019-01-29T14:05:47.488Z,6.98
2019-01-29T14:08:20.813Z,7.04
2019-01-29T14:10:54.162Z,6.90
2019-01-29T14:13:27.565Z,6.88
2019-01-29T14:16:02.372Z,6.88
2019-01-29T14:18:35.687Z,6.77
2019-01-29T14:21:09.042Z,6.78
2019-01-29T14:23:42.763Z,6.76
2019-01-29T14:29:19.153Z,6.76
2019-01-29T14:31:52.527Z,6.76
2019-01-29T14:34:28.544Z,6.63
2019-01-29T14:37:01.942Z,6.60
2019-01-29T14:39:41.155Z,6.54
2019-01-29T14:42:17.472Z,6.52
2019-01-29T14:44:53.589Z,6.55
2019-01-29T14:47:32.621Z,6.57
2019-01-29T14:50:09.142Z,6.54
2019-01-29T14:52:47.111Z,6.48
2019-01-29T14:55:22.979Z,6.38
2019-01-29T14:57:56.300Z,6.21
2019-01-29T15:00:37.508Z,6.17
2019-01-29T15:03:11.404Z,6.11
2019-01-29T15:05:46.679Z,5.99
2019-01-29T15:08:20.327Z,5.89
2019-01-29T15:10:53.754Z,5.85
2019-01-29T15:13:32.818Z,5.81
2019-01-29T15:16:08.365Z,5.82
2019-01-29T15:18:54.118Z,5.70
2019-01-29T15:21:37.372Z,5.58
2019-01-29T15:24:02.758Z,5.60
2019-01-29T15:26:36.114Z,5.61
2019-01-29T15:29:09.435Z,5.54
2019-01-29T15:31:42.856Z,5.50
2019-01-29T15:34:16.498Z,5.43
2019-01-29T15:36:49.958Z,5.43
2019-01-29T15:39:23.277Z,5.38
2019-01-29T15:41:56.649Z,5.30
2019-01-29T15:44:29.945Z,5.28
2019-01-29T15:47:03.289Z,5.23
2019-01-29T15:49:36.632Z,5.17
2019-01-29T15:52:10.054Z,5.10
2019-01-29T15:54:43.403Z,5.08
2019-01-29T15:57:16.753Z,5.07
2019-01-29T15:59:50.079Z,5.03
2019-01-29T16:02:23.448Z,4.99
2019-01-29T16:04:56.863Z,4.97
2019-01-29T16:07:30.229Z,4.89
2019-01-29T16:10:09.390Z,4.83
2019-01-29T16:12:42.750Z,4.81
2019-01-29T16:15:19.307Z,4.78
2019-01-29T16:17:52.822Z,4.69
2019-01-29T16:20:27.796Z,4.64
2019-01-29T16:23:01.590Z,4.59
2019-01-29T16:25:38.304Z,4.53
2019-01-29T16:28:11.667Z,4.50
2019-01-29T16:30:45.045Z,4.43
2019-01-29T16:33:18.462Z,4.41
2019-01-29T16:35:51.787Z,4.37
2019-01-29T16:38:25.240Z,4.31
2019-01-29T16:41:00.522Z,4.24
2019-01-29T16:43:33.702Z,4.17
2019-01-29T16:46:07.091Z,4.11
2019-01-29T16:48:40.444Z,4.07
2019-01-29T16:51:13.785Z,4.03
2019-01-29T16:53:47.212Z,3.99
2019-01-29T16:56:20.594Z,3.94
2019-01-29T16:58:54.010Z,3.91
2019-01-29T17:01:27.408Z,3.88
2019-01-29T17:04:00.978Z,3.87
2019-01-29T17:06:34.294Z,3.85
2019-01-29T17:09:11.693Z,3.88
2019-01-29T17:11:44.427Z,3.86
2019-01-29T17:14:17.778Z,3.87
2019-01-29T17:16:51.105Z,3.87
2019-01-29T17:19:24.523Z,3.87
2019-01-29T17:21:57.850Z,3.85
2019-01-29T17:24:31.209Z,3.88
2019-01-29T17:27:04.768Z,3.90
2019-01-29T17:29:38.118Z,3.88
2019-01-29T17:32:11.510Z,3.86
2019-01-29T17:34:45.758Z,3.86
2019-01-29T17:37:19.111Z,3.83
2019-01-29T17:39:52.432Z,3.83
2019-01-29T17:42:32.291Z,3.85
2019-01-29T17:45:08.782Z,3.89
2019-01-29T17:47:43.682Z,3.85
2019-01-29T17:50:43.321Z,3.81
2019-01-29T17:53:16.742Z,3.78
2019-01-29T17:55:53.165Z,3.79
2019-01-29T17:58:30.398Z,3.82
2019-01-29T18:08:06.341Z,3.88
2019-01-29T18:10:39.803Z,3.89
2019-01-29T18:13:13.228Z,3.88
2019-01-29T18:15:46.622Z,3.85
2019-01-29T18:18:23.436Z,3.83
2019-01-29T18:21:07.140Z,3.82
2019-01-29T18:23:49.240Z,3.80
2019-01-29T18:26:22.610Z,3.79
2019-01-29T18:28:57.124Z,3.78
2019-01-29T18:31:30.481Z,3.74
2019-01-29T18:44:21.405Z,3.69
2019-01-29T18:47:03.064Z,3.69
2019-01-29T18:49:41.180Z,3.70
2019-01-29T18:52:24.660Z,3.66
2019-01-29T18:54:59.315Z,3.64
2019-01-29T18:57:42.804Z,3.59
2019-01-29T19:00:19.436Z,3.61
2019-01-29T19:02:54.680Z,3.59
2019-01-29T19:05:32.310Z,3.61
2019-01-29T19:08:07.395Z,3.57
2019-01-29T19:10:40.839Z,3.59
2019-01-29T19:13:16.307Z,3.58
2019-01-29T19:15:49.771Z,3.56
2019-01-29T19:18:23.198Z,3.50
2019-01-29T19:20:56.700Z,3.54
2019-01-29T19:23:33.218Z,3.52
2019-01-29T19:26:07.763Z,3.46
2019-01-29T19:28:41.221Z,3.41
2019-01-29T19:31:15.920Z,3.35
2019-01-29T19:33:50.983Z,3.34
2019-01-29T19:36:24.726Z,3.38
2019-01-29T19:38:58.888Z,3.38
2019-01-29T19:41:33.954Z,3.31
2019-01-29T19:44:09.176Z,3.35
2019-01-29T19:46:42.657Z,3.39
2019-01-29T19:49:16.271Z,3.37
2019-01-29T19:51:51.233Z,3.33
2019-01-29T19:54:24.623Z,3.31
2019-01-29T19:56:58.070Z,3.29
2019-01-29T19:59:31.495Z,3.21
2019-01-29T20:02:04.902Z,3.21
2019-01-29T20:04:39.890Z,3.18
2019-01-29T20:07:13.220Z,3.24
2019-01-29T20:09:46.641Z,3.23
2019-01-29T20:12:20.306Z,3.22
2019-01-29T20:14:54.562Z,3.25
2019-01-29T20:17:28.047Z,3.25
2019-01-29T20:20:01.437Z,3.17
2019-01-29T20:22:36.102Z,3.16
2019-01-29T20:25:11.610Z,3.13
2019-01-29T20:27:44.969Z,3.07
2019-01-29T20:30:21.250Z,3.07
2019-01-29T20:32:54.570Z,3.02
2019-01-29T20:35:28.426Z,3.08
2019-01-29T20:38:01.849Z,3.04
2019-01-29T20:40:35.350Z,3.06
2019-01-29T20:43:09.029Z,2.97
2019-01-29T20:45:42.522Z,2.86
2019-01-29T20:48:15.902Z,2.79
2019-01-29T20:50:50.892Z,2.79
2019-01-29T20:53:27.422Z,2.75
2019-01-29T20:56:02.118Z,2.77
2019-01-29T20:58:35.504Z,2.82
2019-01-29T21:01:15.425Z,2.78
2019-01-29T21:03:48.768Z,2.75
2019-01-29T21:06:22.193Z,2.83
2019-01-29T21:08:55.599Z,2.71
2019-01-29T21:11:30.581Z,2.70
2019-01-29T21:14:04.120Z,2.76
2019-01-29T21:16:39.131Z,2.64
2019-01-29T21:19:12.456Z,2.59
2019-01-29T21:21:48.358Z,2.61
2019-01-29T21:24:21.754Z,2.59
2019-01-29T21:26:55.103Z,2.54
2019-01-29T21:29:32.168Z,2.46
2019-01-29T21:32:08.518Z,2.50
2019-01-29T21:34:41.911Z,2.48
2019-01-29T21:37:15.271Z,2.41
2019-01-29T21:39:48.663Z,2.39
2019-01-29T21:42:23.656Z,2.39
2019-01-29T21:44:56.990Z,2.38
2019-01-29T21:47:30.338Z,2.46
2019-01-29T21:50:11.628Z,2.40
2019-01-29T21:52:43.628Z,2.37
2019-01-29T21:58:01.443Z,2.36
2019-01-29T22:00:40.344Z,2.37
2019-01-29T22:03:16.871Z,2.35
2019-01-29T22:05:52.069Z,2.31
2019-01-29T22:08:28.646Z,2.28
2019-01-29T22:11:02.008Z,2.34
2019-01-29T22:13:35.345Z,2.33
2019-01-29T22:16:10.337Z,2.28
2019-01-29T22:18:43.689Z,2.29
2019-01-29T22:21:17.076Z,2.31
2019-01-29T22:23:50.403Z,2.31
2019-01-29T22:26:23.750Z,2.28
2019-01-29T22:29:01.550Z,2.22
2019-01-29T22:31:34.982Z,2.25
2019-01-29T22:34:08.376Z,2.27
2019-01-29T22:36:46.985Z,2.26
2019-01-29T22:39:19.790Z,2.20
2019-01-29T22:41:57.321Z,2.07
2019-01-29T22:44:30.642Z,2.04
2019-01-29T22:47:06.881Z,2.00
2019-01-29T22:49:47.631Z,1.94
2019-01-29T22:52:21.004Z,1.98
2019-01-29T22:54:59.867Z,1.98
2019-01-29T22:57:33.282Z,1.94
2019-01-29T23:00:14.243Z,1.93
2019-01-29T23:02:47.694Z,1.91
2019-01-29T23:05:26.420Z,1.86
2019-01-29T23:07:59.771Z,1.92
2019-01-29T23:10:33.095Z,1.85
2019-01-29T23:13:09.501Z,1.85
2019-01-29T23:15:42.904Z,1.79
2019-01-29T23:18:19.406Z,1.82
2019-01-29T23:20:52.731Z,1.76
2019-01-29T23:23:26.219Z,1.74
2019-01-29T23:26:02.530Z,1.74
2019-01-29T23:28:35.888Z,1.72
2019-01-29T23:31:09.463Z,1.79
2019-01-29T23:33:42.846Z,1.82
2019-01-29T23:36:17.864Z,1.82
2019-01-29T23:38:51.188Z,1.86
2019-01-29T23:41:26.099Z,1.89
2019-01-29T23:44:07.932Z,1.95
2019-01-29T23:46:41.474Z,1.98
2019-01-29T23:49:14.856Z,2.00
2019-01-29T23:51:51.300Z,1.91
2019-01-29T23:54:26.285Z,1.80
2019-01-29T23:56:59.650Z,1.82
2019-01-29T23:59:34.519Z,1.88
